Airfield :
LOGIN :

Register | Disclaimer

   EN    FR    IT 

 










Legend :    VFR   Marginal VFR   IFR   Intensive IFR   Very Intensive IFR
Visi :
Ceiling :
>= 8 km
>= 3000ft
5 to 8 km
1000 to 3000 ft
1500m to 5 km
500 to 1000 ft
800 to 1500m
200 to 500 ft
< 800m
< 200 ft
Symbols :   Thunderstorms  Fog  Heavy snow  Heavy precipitations  Wind > 20 kt
SIGMETs :     Misc.  Thunderstorms  Icing  Turbulence  Mountain Waves  Volcanic Ashes







- Airport Elevation : 325 ft
- IATA code : BES
- Download approach charts


LFRB - Brest

CURRENT METAR :
  • 250630Z AUTO 04007KT 4100 BR BKN008 OVC012 13/13 Q1018 BECMG BKN021

EXPIRED METARs :
  • 250600Z AUTO 04005KT 360V060 3200 BR OVC006 13/13 Q1018 BECMG BKN003
  • 250530Z AUTO 04006KT 2600 BR OVC004 13/13 Q1018 BECMG 3000 BR
  • 250500Z AUTO 04007KT 2200 BR OVC003 13/13 Q1018 BECMG 3000 BR
  • 250430Z AUTO 03007KT 360V060 3100 BR OVC003 12/12 Q1017 TEMPO 0600 BCFG
  • 250400Z AUTO 02006KT 3700 BR OVC004 12/12 Q1017 TEMPO 0600 BCFG

TAF TAF LFRB
Valid from the 25 at 06:00 until the 26 at 12:00 UTC


250500Z 2506/2612 03010KT 3000 BR BKN003
BECMG 2508/2510 BKN021
TEMPO 2512/2518 SHRA SCT033TCU
BECMG 2518/2521 BKN008
TEMPO 2521/2606 4000 BR
BECMG 2607/2609 SCT020 SCT030
ATIS : +33 2 98 32 02 71
No reported NOTAMs for that airfield.
1 SIGMET reported for the Brest FIR (LFRR) :
 
Embedded thunderstorms
LFRR SIGMET 3 VALID 250600/250800 LFPW
LFRR BREST FIR/UIR EMBD TS OBS WI N4545 W00145 - N4415 W00145 - N4430 W00230 - N4545 W00215 - N4545 W00145 TOP FL380 MOV NNE 20KT NC=



MET'MAP, your aeronautical weather chart ! - Copyright ORBIFLY December 2007 - Disclaimer

ORBIFLY MET'MAP TEAM :

Programming & Development : Alexandra Zaïnal
Concept & Development : Baudouin d'Aumeries
Co-Development & Prog : Marc-Olivier Méhu
Technical & hardware support : Manuel Goepfert

Contact : metmap@orbifly.com




SOURCES & CREDITS :

   NOAA